sensor_id;sensor_type;location;lat;lon;timestamp;P1;durP1;ratioP1;P2;durP2;ratioP2
8293;SDS011;4185;41.506;24.938;2022-07-01T00:00:12;5.13;;;4.60;;
8293;SDS011;4185;41.506;24.938;2022-07-01T00:02:40;4.67;;;4.17;;
8293;SDS011;4185;41.506;24.938;2022-07-01T00:05:07;5.00;;;4.23;;
8293;SDS011;4185;41.506;24.938;2022-07-01T00:07:34;5.00;;;4.13;;
8293;SDS011;4185;41.506;24.938;2022-07-01T00:10:01;9.10;;;4.83;;
8293;SDS011;4185;41.506;24.938;2022-07-01T00:12:28;5.30;;;4.80;;
8293;SDS011;4185;41.506;24.938;2022-07-01T00:14:57;5.33;;;4.67;;
8293;SDS011;4185;41.506;24.938;2022-07-01T00:17:23;4.90;;;4.40;;
8293;SDS011;4185;41.506;24.938;2022-07-01T00:19:50;5.53;;;4.70;;
8293;SDS011;4185;41.506;24.938;2022-07-01T00:22:17;5.70;;;5.20;;
8293;SDS011;4185;41.506;24.938;2022-07-01T00:24:44;5.83;;;5.23;;
8293;SDS011;4185;41.506;24.938;2022-07-01T00:27:13;5.23;;;4.70;;
8293;SDS011;4185;41.506;24.938;2022-07-01T00:29:40;4.87;;;4.43;;
8293;SDS011;4185;41.506;24.938;2022-07-01T00:32:08;4.93;;;4.47;;
8293;SDS011;4185;41.506;24.938;2022-07-01T00:34:35;6.80;;;4.73;;
8293;SDS011;4185;41.506;24.938;2022-07-01T00:37:03;7.13;;;4.67;;
8293;SDS011;4185;41.506;24.938;2022-07-01T00:39:30;6.03;;;4.70;;
8293;SDS011;4185;41.506;24.938;2022-07-01T00:41:59;5.40;;;4.50;;
8293;SDS011;4185;41.506;24.938;2022-07-01T00:44:27;5.20;;;4.70;;
8293;SDS011;4185;41.506;24.938;2022-07-01T00:46:54;5.17;;;4.70;;
8293;SDS011;4185;41.506;24.938;2022-07-01T00:49:23;6.47;;;4.83;;
8293;SDS011;4185;41.506;24.938;2022-07-01T00:51:52;5.23;;;4.73;;
8293;SDS011;4185;41.506;24.938;2022-07-01T00:54:19;4.80;;;4.23;;
8293;SDS011;4185;41.506;24.938;2022-07-01T00:56:47;4.93;;;4.20;;
8293;SDS011;4185;41.506;24.938;2022-07-01T00:59:14;7.00;;;4.80;;
8293;SDS011;4185;41.506;24.938;2022-07-01T01:01:41;7.10;;;4.40;;
8293;SDS011;4185;41.506;24.938;2022-07-01T01:04:08;6.47;;;4.67;;
8293;SDS011;4185;41.506;24.938;2022-07-01T01:06:36;8.93;;;4.67;;
8293;SDS011;4185;41.506;24.938;2022-07-01T01:09:03;5.57;;;4.10;;
8293;SDS011;4185;41.506;24.938;2022-07-01T01:11:30;4.60;;;4.20;;
8293;SDS011;4185;41.506;24.938;2022-07-01T01:13:58;5.07;;;4.57;;
8293;SDS011;4185;41.506;24.938;2022-07-01T01:16:25;7.03;;;4.40;;
8293;SDS011;4185;41.506;24.938;2022-07-01T01:18:52;5.20;;;4.50;;
8293;SDS011;4185;41.506;24.938;2022-07-01T01:21:21;5.60;;;4.37;;
8293;SDS011;4185;41.506;24.938;2022-07-01T01:23:48;8.77;;;5.00;;
8293;SDS011;4185;41.506;24.938;2022-07-01T01:26:15;5.10;;;4.60;;
8293;SDS011;4185;41.506;24.938;2022-07-01T01:28:43;5.30;;;4.80;;
8293;SDS011;4185;41.506;24.938;2022-07-01T01:31:10;6.10;;;5.13;;
8293;SDS011;4185;41.506;24.938;2022-07-01T01:33:37;5.70;;;4.70;;
8293;SDS011;4185;41.506;24.938;2022-07-01T01:36:04;5.10;;;4.70;;
8293;SDS011;4185;41.506;24.938;2022-07-01T01:38:34;6.70;;;4.53;;
8293;SDS011;4185;41.506;24.938;2022-07-01T01:41:01;5.27;;;4.33;;
8293;SDS011;4185;41.506;24.938;2022-07-01T01:43:28;5.80;;;4.27;;
8293;SDS011;4185;41.506;24.938;2022-07-01T01:45:55;5.07;;;4.57;;
8293;SDS011;4185;41.506;24.938;2022-07-01T01:48:25;6.27;;;4.60;;
8293;SDS011;4185;41.506;24.938;2022-07-01T01:50:52;5.17;;;4.70;;
8293;SDS011;4185;41.506;24.938;2022-07-01T01:53:18;5.70;;;4.70;;
8293;SDS011;4185;41.506;24.938;2022-07-01T01:55:47;6.57;;;4.87;;
8293;SDS011;4185;41.506;24.938;2022-07-01T01:58:14;5.30;;;4.47;;
8293;SDS011;4185;41.506;24.938;2022-07-01T02:00:40;5.03;;;4.43;;
8293;SDS011;4185;41.506;24.938;2022-07-01T02:03:08;5.47;;;4.63;;
8293;SDS011;4185;41.506;24.938;2022-07-01T02:05:35;4.83;;;4.33;;
8293;SDS011;4185;41.506;24.938;2022-07-01T02:08:02;5.63;;;4.63;;
8293;SDS011;4185;41.506;24.938;2022-07-01T02:10:29;6.67;;;4.83;;
8293;SDS011;4185;41.506;24.938;2022-07-01T02:12:58;7.47;;;5.00;;
8293;SDS011;4185;41.506;24.938;2022-07-01T02:15:24;5.53;;;5.03;;
8293;SDS011;4185;41.506;24.938;2022-07-01T02:17:51;6.07;;;4.77;;
8293;SDS011;4185;41.506;24.938;2022-07-01T02:20:21;4.93;;;4.43;;
8293;SDS011;4185;41.506;24.938;2022-07-01T02:22:48;5.43;;;4.70;;
8293;SDS011;4185;41.506;24.938;2022-07-01T02:25:16;5.07;;;4.57;;
8293;SDS011;4185;41.506;24.938;2022-07-01T02:27:43;5.00;;;4.10;;
8293;SDS011;4185;41.506;24.938;2022-07-01T02:30:12;9.53;;;4.57;;
8293;SDS011;4185;41.506;24.938;2022-07-01T02:32:39;5.27;;;4.73;;
8293;SDS011;4185;41.506;24.938;2022-07-01T02:35:06;6.37;;;4.87;;
8293;SDS011;4185;41.506;24.938;2022-07-01T02:37:34;6.77;;;4.60;;
8293;SDS011;4185;41.506;24.938;2022-07-01T02:40:01;5.57;;;5.07;;
8293;SDS011;4185;41.506;24.938;2022-07-01T02:42:28;6.23;;;4.63;;
8293;SDS011;4185;41.506;24.938;2022-07-01T02:45:00;5.80;;;4.73;;
8293;SDS011;4185;41.506;24.938;2022-07-01T02:47:31;5.03;;;4.63;;
8293;SDS011;4185;41.506;24.938;2022-07-01T02:49:58;5.20;;;4.70;;
8293;SDS011;4185;41.506;24.938;2022-07-01T02:52:26;6.10;;;4.53;;
8293;SDS011;4185;41.506;24.938;2022-07-01T02:54:54;7.27;;;5.30;;
8293;SDS011;4185;41.506;24.938;2022-07-01T02:57:21;5.40;;;4.90;;
8293;SDS011;4185;41.506;24.938;2022-07-01T02:59:48;7.27;;;5.17;;
8293;SDS011;4185;41.506;24.938;2022-07-01T03:02:16;6.37;;;4.70;;
8293;SDS011;4185;41.506;24.938;2022-07-01T03:04:45;7.43;;;4.63;;
8293;SDS011;4185;41.506;24.938;2022-07-01T03:07:13;5.93;;;4.77;;
8293;SDS011;4185;41.506;24.938;2022-07-01T03:09:40;5.67;;;4.57;;
8293;SDS011;4185;41.506;24.938;2022-07-01T03:12:08;7.57;;;4.90;;
8293;SDS011;4185;41.506;24.938;2022-07-01T03:14:53;5.67;;;4.37;;
8293;SDS011;4185;41.506;24.938;2022-07-01T03:17:20;5.60;;;4.60;;
8293;SDS011;4185;41.506;24.938;2022-07-01T03:19:49;5.03;;;4.53;;
8293;SDS011;4185;41.506;24.938;2022-07-01T03:22:16;7.33;;;4.70;;
8293;SDS011;4185;41.506;24.938;2022-07-01T03:24:44;6.37;;;4.80;;
8293;SDS011;4185;41.506;24.938;2022-07-01T03:27:11;5.20;;;4.70;;
8293;SDS011;4185;41.506;24.938;2022-07-01T03:29:38;5.30;;;4.80;;
8293;SDS011;4185;41.506;24.938;2022-07-01T03:32:05;5.53;;;4.60;;
8293;SDS011;4185;41.506;24.938;2022-07-01T03:34:34;6.47;;;4.60;;
8293;SDS011;4185;41.506;24.938;2022-07-01T03:37:02;5.37;;;4.90;;
8293;SDS011;4185;41.506;24.938;2022-07-01T03:39:29;8.17;;;4.67;;
8293;SDS011;4185;41.506;24.938;2022-07-01T03:41:56;7.70;;;4.60;;
8293;SDS011;4185;41.506;24.938;2022-07-01T03:44:23;5.13;;;4.40;;
8293;SDS011;4185;41.506;24.938;2022-07-01T03:46:50;5.50;;;4.90;;
8293;SDS011;4185;41.506;24.938;2022-07-01T03:49:17;6.97;;;5.20;;
8293;SDS011;4185;41.506;24.938;2022-07-01T03:51:44;6.60;;;5.10;;
8293;SDS011;4185;41.506;24.938;2022-07-01T03:54:13;5.17;;;4.67;;
8293;SDS011;4185;41.506;24.938;2022-07-01T03:56:58;6.63;;;5.00;;
8293;SDS011;4185;41.506;24.938;2022-07-01T03:59:26;5.37;;;4.87;;
8293;SDS011;4185;41.506;24.938;2022-07-01T04:01:53;5.87;;;4.60;;
8293;SDS011;4185;41.506;24.938;2022-07-01T04:04:20;6.07;;;4.97;;
8293;SDS011;4185;41.506;24.938;2022-07-01T04:06:47;6.07;;;4.57;;
8293;SDS011;4185;41.506;24.938;2022-07-01T04:09:17;5.80;;;5.00;;
8293;SDS011;4185;41.506;24.938;2022-07-01T04:11:44;5.37;;;4.87;;
8293;SDS011;4185;41.506;24.938;2022-07-01T04:14:12;9.07;;;4.90;;
8293;SDS011;4185;41.506;24.938;2022-07-01T04:16:39;5.30;;;4.80;;
8293;SDS011;4185;41.506;24.938;2022-07-01T04:19:07;8.13;;;6.73;;
8293;SDS011;4185;41.506;24.938;2022-07-01T04:21:35;11.30;;;6.67;;
8293;SDS011;4185;41.506;24.938;2022-07-01T04:24:20;8.90;;;6.23;;
8293;SDS011;4185;41.506;24.938;2022-07-01T04:26:49;7.90;;;6.00;;
8293;SDS011;4185;41.506;24.938;2022-07-01T04:29:17;9.80;;;5.90;;
8293;SDS011;4185;41.506;24.938;2022-07-01T04:31:44;9.50;;;6.83;;
8293;SDS011;4185;41.506;24.938;2022-07-01T04:34:11;12.57;;;7.63;;
8293;SDS011;4185;41.506;24.938;2022-07-01T04:36:38;17.60;;;9.67;;
8293;SDS011;4185;41.506;24.938;2022-07-01T04:39:05;8.37;;;6.03;;
8293;SDS011;4185;41.506;24.938;2022-07-01T04:41:33;7.07;;;5.17;;
8293;SDS011;4185;41.506;24.938;2022-07-01T04:44:18;9.40;;;5.77;;
8293;SDS011;4185;41.506;24.938;2022-07-01T04:46:45;7.30;;;5.43;;
8293;SDS011;4185;41.506;24.938;2022-07-01T04:49:12;8.50;;;6.37;;
8293;SDS011;4185;41.506;24.938;2022-07-01T04:51:39;12.13;;;6.10;;
8293;SDS011;4185;41.506;24.938;2022-07-01T04:54:06;10.20;;;5.93;;
8293;SDS011;4185;41.506;24.938;2022-07-01T04:56:35;10.53;;;5.90;;
8293;SDS011;4185;41.506;24.938;2022-07-01T04:59:03;5.40;;;4.90;;
8293;SDS011;4185;41.506;24.938;2022-07-01T05:01:30;8.07;;;5.50;;
8293;SDS011;4185;41.506;24.938;2022-07-01T05:03:57;8.30;;;5.70;;
8293;SDS011;4185;41.506;24.938;2022-07-01T05:06:25;8.77;;;5.87;;
8293;SDS011;4185;41.506;24.938;2022-07-01T05:08:51;6.37;;;5.70;;
8293;SDS011;4185;41.506;24.938;2022-07-01T05:11:18;7.90;;;5.50;;
8293;SDS011;4185;41.506;24.938;2022-07-01T05:13:47;5.87;;;5.20;;
8293;SDS011;4185;41.506;24.938;2022-07-01T05:16:13;9.60;;;6.53;;
8293;SDS011;4185;41.506;24.938;2022-07-01T05:18:40;9.70;;;5.93;;
8293;SDS011;4185;41.506;24.938;2022-07-01T05:21:25;7.90;;;5.97;;
8293;SDS011;4185;41.506;24.938;2022-07-01T05:24:09;9.80;;;5.80;;
8293;SDS011;4185;41.506;24.938;2022-07-01T05:26:36;8.10;;;5.63;;
8293;SDS011;4185;41.506;24.938;2022-07-01T05:29:04;8.30;;;6.00;;
8293;SDS011;4185;41.506;24.938;2022-07-01T05:31:31;9.37;;;6.37;;
8293;SDS011;4185;41.506;24.938;2022-07-01T05:33:58;15.97;;;6.77;;
8293;SDS011;4185;41.506;24.938;2022-07-01T05:36:26;7.40;;;6.03;;
8293;SDS011;4185;41.506;24.938;2022-07-01T05:38:52;7.70;;;7.00;;
8293;SDS011;4185;41.506;24.938;2022-07-01T05:41:19;11.60;;;6.83;;
8293;SDS011;4185;41.506;24.938;2022-07-01T05:43:46;9.17;;;6.17;;
8293;SDS011;4185;41.506;24.938;2022-07-01T05:46:14;9.27;;;5.70;;
8293;SDS011;4185;41.506;24.938;2022-07-01T05:48:41;6.57;;;5.33;;
8293;SDS011;4185;41.506;24.938;2022-07-01T05:51:08;6.83;;;5.50;;
8293;SDS011;4185;41.506;24.938;2022-07-01T05:53:35;8.37;;;6.27;;
8293;SDS011;4185;41.506;24.938;2022-07-01T05:56:02;7.07;;;6.27;;
8293;SDS011;4185;41.506;24.938;2022-07-01T05:58:29;6.77;;;5.70;;
8293;SDS011;4185;41.506;24.938;2022-07-01T06:00:55;6.80;;;5.43;;
8293;SDS011;4185;41.506;24.938;2022-07-01T06:03:24;8.53;;;5.57;;
8293;SDS011;4185;41.506;24.938;2022-07-01T06:05:50;6.17;;;5.50;;
8293;SDS011;4185;41.506;24.938;2022-07-01T06:08:17;6.57;;;5.20;;
8293;SDS011;4185;41.506;24.938;2022-07-01T06:10:44;6.67;;;5.87;;
8293;SDS011;4185;41.506;24.938;2022-07-01T06:13:11;5.70;;;5.20;;
8293;SDS011;4185;41.506;24.938;2022-07-01T06:15:38;22.83;;;10.30;;
8293;SDS011;4185;41.506;24.938;2022-07-01T06:18:05;7.70;;;5.07;;
8293;SDS011;4185;41.506;24.938;2022-07-01T06:20:33;6.17;;;5.30;;
8293;SDS011;4185;41.506;24.938;2022-07-01T06:23:00;6.43;;;5.47;;
8293;SDS011;4185;41.506;24.938;2022-07-01T06:25:27;6.77;;;5.27;;
8293;SDS011;4185;41.506;24.938;2022-07-01T06:27:53;5.70;;;5.03;;
8293;SDS011;4185;41.506;24.938;2022-07-01T06:30:20;8.10;;;5.17;;
8293;SDS011;4185;41.506;24.938;2022-07-01T06:32:47;6.47;;;5.07;;
8293;SDS011;4185;41.506;24.938;2022-07-01T06:35:14;9.57;;;5.30;;
8293;SDS011;4185;41.506;24.938;2022-07-01T06:37:42;7.77;;;4.53;;
8293;SDS011;4185;41.506;24.938;2022-07-01T06:40:09;5.57;;;4.47;;
8293;SDS011;4185;41.506;24.938;2022-07-01T06:42:36;5.17;;;4.43;;
8293;SDS011;4185;41.506;24.938;2022-07-01T06:45:04;5.60;;;4.30;;
8293;SDS011;4185;41.506;24.938;2022-07-01T06:47:31;5.10;;;4.40;;
8293;SDS011;4185;41.506;24.938;2022-07-01T06:49:58;4.93;;;4.40;;
8293;SDS011;4185;41.506;24.938;2022-07-01T06:52:25;5.77;;;4.87;;
8293;SDS011;4185;41.506;24.938;2022-07-01T06:54:53;7.00;;;4.63;;
8293;SDS011;4185;41.506;24.938;2022-07-01T06:57:20;8.33;;;4.50;;
8293;SDS011;4185;41.506;24.938;2022-07-01T06:59:47;7.97;;;4.17;;
8293;SDS011;4185;41.506;24.938;2022-07-01T07:02:14;4.20;;;3.80;;
8293;SDS011;4185;41.506;24.938;2022-07-01T07:04:41;8.07;;;4.27;;
8293;SDS011;4185;41.506;24.938;2022-07-01T07:07:08;7.23;;;4.57;;
8293;SDS011;4185;41.506;24.938;2022-07-01T07:09:35;4.80;;;4.20;;
8293;SDS011;4185;41.506;24.938;2022-07-01T07:12:03;4.90;;;4.47;;
8293;SDS011;4185;41.506;24.938;2022-07-01T07:14:31;6.77;;;4.50;;
8293;SDS011;4185;41.506;24.938;2022-07-01T07:16:57;5.70;;;4.40;;
8293;SDS011;4185;41.506;24.938;2022-07-01T07:19:24;4.93;;;4.43;;
8293;SDS011;4185;41.506;24.938;2022-07-01T07:21:51;4.67;;;4.17;;
8293;SDS011;4185;41.506;24.938;2022-07-01T07:24:18;5.10;;;4.60;;
8293;SDS011;4185;41.506;24.938;2022-07-01T07:26:45;5.07;;;4.30;;
8293;SDS011;4185;41.506;24.938;2022-07-01T07:29:14;5.30;;;4.07;;
8293;SDS011;4185;41.506;24.938;2022-07-01T07:31:41;7.40;;;4.77;;
8293;SDS011;4185;41.506;24.938;2022-07-01T07:34:07;6.67;;;4.63;;
8293;SDS011;4185;41.506;24.938;2022-07-01T07:36:34;7.90;;;4.63;;
8293;SDS011;4185;41.506;24.938;2022-07-01T07:39:01;5.77;;;5.03;;
8293;SDS011;4185;41.506;24.938;2022-07-01T07:41:30;5.77;;;4.80;;
8293;SDS011;4185;41.506;24.938;2022-07-01T07:43:56;6.93;;;4.97;;
8293;SDS011;4185;41.506;24.938;2022-07-01T07:46:25;7.97;;;5.27;;
8293;SDS011;4185;41.506;24.938;2022-07-01T07:48:51;4.93;;;4.53;;
8293;SDS011;4185;41.506;24.938;2022-07-01T07:51:18;8.67;;;4.87;;
8293;SDS011;4185;41.506;24.938;2022-07-01T07:53:48;5.23;;;4.30;;
8293;SDS011;4185;41.506;24.938;2022-07-01T07:56:15;4.83;;;4.10;;
8293;SDS011;4185;41.506;24.938;2022-07-01T07:58:42;5.70;;;4.20;;
8293;SDS011;4185;41.506;24.938;2022-07-01T08:01:09;8.13;;;4.50;;
8293;SDS011;4185;41.506;24.938;2022-07-01T08:03:37;6.17;;;4.60;;
8293;SDS011;4185;41.506;24.938;2022-07-01T08:06:04;4.43;;;4.00;;
8293;SDS011;4185;41.506;24.938;2022-07-01T08:08:31;4.50;;;4.10;;
8293;SDS011;4185;41.506;24.938;2022-07-01T08:10:59;6.47;;;4.57;;
8293;SDS011;4185;41.506;24.938;2022-07-01T08:13:26;8.13;;;4.40;;
8293;SDS011;4185;41.506;24.938;2022-07-01T08:15:53;8.27;;;4.70;;
8293;SDS011;4185;41.506;24.938;2022-07-01T08:18:20;4.63;;;4.23;;
8293;SDS011;4185;41.506;24.938;2022-07-01T08:20:49;4.20;;;3.80;;
8293;SDS011;4185;41.506;24.938;2022-07-01T08:23:18;5.70;;;4.20;;
8293;SDS011;4185;41.506;24.938;2022-07-01T08:25:46;5.47;;;3.80;;
8293;SDS011;4185;41.506;24.938;2022-07-01T08:28:13;5.43;;;4.18;;
8293;SDS011;4185;41.506;24.938;2022-07-01T08:30:40;4.53;;;3.97;;
8293;SDS011;4185;41.506;24.938;2022-07-01T08:33:07;5.43;;;4.50;;
8293;SDS011;4185;41.506;24.938;2022-07-01T08:35:34;7.57;;;3.85;;
8293;SDS011;4185;41.506;24.938;2022-07-01T08:38:02;7.18;;;4.32;;
8293;SDS011;4185;41.506;24.938;2022-07-01T08:40:31;6.00;;;4.10;;
8293;SDS011;4185;41.506;24.938;2022-07-01T08:42:59;4.30;;;3.90;;
8293;SDS011;4185;41.506;24.938;2022-07-01T08:45:27;4.55;;;4.10;;
8293;SDS011;4185;41.506;24.938;2022-07-01T08:47:55;6.07;;;4.25;;
8293;SDS011;4185;41.506;24.938;2022-07-01T08:50:26;5.25;;;4.07;;
8293;SDS011;4185;41.506;24.938;2022-07-01T08:52:53;6.22;;;3.97;;
8293;SDS011;4185;41.506;24.938;2022-07-01T08:55:22;4.10;;;3.75;;
8293;SDS011;4185;41.506;24.938;2022-07-01T08:57:49;6.78;;;4.00;;
8293;SDS011;4185;41.506;24.938;2022-07-01T09:00:17;8.23;;;4.25;;
8293;SDS011;4185;41.506;24.938;2022-07-01T09:02:53;7.78;;;5.18;;
8293;SDS011;4185;41.506;24.938;2022-07-01T09:05:21;7.28;;;4.22;;
8293;SDS011;4185;41.506;24.938;2022-07-01T09:07:54;4.32;;;3.83;;
8293;SDS011;4185;41.506;24.938;2022-07-01T09:10:25;5.47;;;4.15;;
8293;SDS011;4185;41.506;24.938;2022-07-01T09:12:52;5.90;;;3.70;;
8293;SDS011;4185;41.506;24.938;2022-07-01T09:15:20;4.22;;;3.83;;
8293;SDS011;4185;41.506;24.938;2022-07-01T09:17:50;6.50;;;4.10;;
8293;SDS011;4185;41.506;24.938;2022-07-01T09:20:27;6.57;;;4.15;;
8293;SDS011;4185;41.506;24.938;2022-07-01T09:22:59;5.03;;;4.53;;
8293;SDS011;4185;41.506;24.938;2022-07-01T09:25:30;4.95;;;4.22;;
8293;SDS011;4185;41.506;24.938;2022-07-01T09:28:03;4.60;;;4.05;;
8293;SDS011;4185;41.506;24.938;2022-07-01T09:30:30;10.02;;;4.25;;
8293;SDS011;4185;41.506;24.938;2022-07-01T09:33:08;6.72;;;4.70;;
8293;SDS011;4185;41.506;24.938;2022-07-01T09:35:37;6.18;;;4.05;;
8293;SDS011;4185;41.506;24.938;2022-07-01T09:38:04;5.00;;;4.45;;
8293;SDS011;4185;41.506;24.938;2022-07-01T09:40:52;4.90;;;4.15;;
8293;SDS011;4185;41.506;24.938;2022-07-01T09:43:21;5.13;;;4.40;;
8293;SDS011;4185;41.506;24.938;2022-07-01T09:45:52;4.43;;;4.03;;
8293;SDS011;4185;41.506;24.938;2022-07-01T09:48:21;5.18;;;3.92;;
8293;SDS011;4185;41.506;24.938;2022-07-01T09:50:50;4.15;;;3.85;;
8293;SDS011;4185;41.506;24.938;2022-07-01T09:53:17;4.63;;;3.97;;
8293;SDS011;4185;41.506;24.938;2022-07-01T09:55:44;7.60;;;4.38;;
8293;SDS011;4185;41.506;24.938;2022-07-01T09:58:13;4.65;;;3.90;;
8293;SDS011;4185;41.506;24.938;2022-07-01T10:00:40;4.25;;;3.60;;
8293;SDS011;4185;41.506;24.938;2022-07-01T10:03:07;4.15;;;3.85;;
8293;SDS011;4185;41.506;24.938;2022-07-01T10:05:44;5.15;;;4.00;;
8293;SDS011;4185;41.506;24.938;2022-07-01T10:08:22;4.68;;;3.90;;
8293;SDS011;4185;41.506;24.938;2022-07-01T10:11:16;7.78;;;4.38;;
8293;SDS011;4185;41.506;24.938;2022-07-01T10:14:01;4.50;;;4.10;;
8293;SDS011;4185;41.506;24.938;2022-07-01T10:16:30;5.07;;;4.38;;
8293;SDS011;4185;41.506;24.938;2022-07-01T10:18:58;5.18;;;4.28;;
8293;SDS011;4185;41.506;24.938;2022-07-01T10:21:26;5.57;;;4.30;;
8293;SDS011;4185;41.506;24.938;2022-07-01T10:24:10;7.28;;;4.38;;
8293;SDS011;4185;41.506;24.938;2022-07-01T10:26:38;5.22;;;4.10;;
8293;SDS011;4185;41.506;24.938;2022-07-01T10:29:06;4.28;;;3.80;;
8293;SDS011;4185;41.506;24.938;2022-07-01T10:31:53;4.50;;;4.10;;
8293;SDS011;4185;41.506;24.938;2022-07-01T10:34:21;5.43;;;3.95;;
8293;SDS011;4185;41.506;24.938;2022-07-01T10:37:00;6.07;;;4.32;;
8293;SDS011;4185;41.506;24.938;2022-07-01T10:39:27;4.43;;;4.03;;
8293;SDS011;4185;41.506;24.938;2022-07-01T10:41:58;4.70;;;4.10;;
8293;SDS011;4185;41.506;24.938;2022-07-01T10:44:32;4.03;;;3.72;;
8293;SDS011;4185;41.506;24.938;2022-07-01T10:47:02;4.35;;;3.95;;
8293;SDS011;4185;41.506;24.938;2022-07-01T10:52:22;4.22;;;3.60;;
8293;SDS011;4185;41.506;24.938;2022-07-01T10:54:50;5.00;;;3.70;;
8293;SDS011;4185;41.506;24.938;2022-07-01T10:57:27;4.80;;;3.88;;
8293;SDS011;4185;41.506;24.938;2022-07-01T11:02:55;3.70;;;3.40;;
8293;SDS011;4185;41.506;24.938;2022-07-01T11:05:30;4.85;;;3.92;;
8293;SDS011;4185;41.506;24.938;2022-07-01T11:07:57;6.78;;;4.72;;
8293;SDS011;4185;41.506;24.938;2022-07-01T11:10:24;5.80;;;4.40;;
8293;SDS011;4185;41.506;24.938;2022-07-01T11:12:51;7.57;;;3.92;;
8293;SDS011;4185;41.506;24.938;2022-07-01T11:15:19;4.00;;;3.50;;
8293;SDS011;4185;41.506;24.938;2022-07-01T11:17:48;4.28;;;3.75;;
8293;SDS011;4185;41.506;24.938;2022-07-01T11:20:16;7.20;;;3.90;;
8293;SDS011;4185;41.506;24.938;2022-07-01T11:22:43;4.63;;;3.97;;
8293;SDS011;4185;41.506;24.938;2022-07-01T11:25:10;3.95;;;3.65;;
8293;SDS011;4185;41.506;24.938;2022-07-01T11:27:38;7.00;;;4.40;;
8293;SDS011;4185;41.506;24.938;2022-07-01T11:30:07;4.57;;;3.97;;
8293;SDS011;4185;41.506;24.938;2022-07-01T11:32:39;6.38;;;3.72;;
8293;SDS011;4185;41.506;24.938;2022-07-01T11:35:08;4.90;;;4.50;;
8293;SDS011;4185;41.506;24.938;2022-07-01T11:38:03;5.97;;;4.20;;
8293;SDS011;4185;41.506;24.938;2022-07-01T11:40:48;4.10;;;3.70;;
8293;SDS011;4185;41.506;24.938;2022-07-01T11:43:19;4.53;;;4.13;;
8293;SDS011;4185;41.506;24.938;2022-07-01T11:45:47;4.78;;;3.83;;
8293;SDS011;4185;41.506;24.938;2022-07-01T11:48:29;4.78;;;4.40;;
8293;SDS011;4185;41.506;24.938;2022-07-01T11:50:57;5.78;;;4.00;;
8293;SDS011;4185;41.506;24.938;2022-07-01T11:53:25;5.85;;;4.20;;
8293;SDS011;4185;41.506;24.938;2022-07-01T11:55:53;5.68;;;4.35;;
8293;SDS011;4185;41.506;24.938;2022-07-01T11:58:19;5.78;;;4.22;;
8293;SDS011;4185;41.506;24.938;2022-07-01T12:00:47;8.57;;;4.43;;
8293;SDS011;4185;41.506;24.938;2022-07-01T12:03:29;5.35;;;4.72;;
8293;SDS011;4185;41.506;24.938;2022-07-01T12:05:57;8.35;;;4.20;;
8293;SDS011;4185;41.506;24.938;2022-07-01T12:08:24;6.47;;;4.43;;
8293;SDS011;4185;41.506;24.938;2022-07-01T12:10:51;4.25;;;3.92;;
8293;SDS011;4185;41.506;24.938;2022-07-01T12:13:22;4.65;;;4.28;;
8293;SDS011;4185;41.506;24.938;2022-07-01T12:15:49;4.28;;;3.67;;
8293;SDS011;4185;41.506;24.938;2022-07-01T12:18:16;4.20;;;3.90;;
8293;SDS011;4185;41.506;24.938;2022-07-01T12:20:51;4.43;;;3.97;;
8293;SDS011;4185;41.506;24.938;2022-07-01T12:23:19;4.30;;;4.00;;
8293;SDS011;4185;41.506;24.938;2022-07-01T12:25:47;4.22;;;3.92;;
8293;SDS011;4185;41.506;24.938;2022-07-01T12:28:27;4.63;;;4.18;;
8293;SDS011;4185;41.506;24.938;2022-07-01T12:30:59;6.22;;;3.85;;
8293;SDS011;4185;41.506;24.938;2022-07-01T12:33:32;7.78;;;4.63;;
8293;SDS011;4185;41.506;24.938;2022-07-01T12:36:01;5.95;;;4.07;;
8293;SDS011;4185;41.506;24.938;2022-07-01T12:38:30;11.18;;;4.43;;
8293;SDS011;4185;41.506;24.938;2022-07-01T12:40:57;4.45;;;3.85;;
8293;SDS011;4185;41.506;24.938;2022-07-01T12:43:24;4.30;;;3.90;;
8293;SDS011;4185;41.506;24.938;2022-07-01T12:45:54;4.35;;;3.70;;
8293;SDS011;4185;41.506;24.938;2022-07-01T12:48:22;5.63;;;3.97;;
8293;SDS011;4185;41.506;24.938;2022-07-01T12:50:51;4.07;;;3.67;;
8293;SDS011;4185;41.506;24.938;2022-07-01T12:53:21;4.82;;;4.13;;
8293;SDS011;4185;41.506;24.938;2022-07-01T12:55:49;5.05;;;4.50;;
8293;SDS011;4185;41.506;24.938;2022-07-01T12:58:19;5.38;;;4.13;;
8293;SDS011;4185;41.506;24.938;2022-07-01T13:00:48;4.45;;;4.00;;
8293;SDS011;4185;41.506;24.938;2022-07-01T13:03:18;4.90;;;4.03;;
8293;SDS011;4185;41.506;24.938;2022-07-01T13:05:46;4.25;;;3.85;;
8293;SDS011;4185;41.506;24.938;2022-07-01T13:08:13;4.15;;;3.85;;
8293;SDS011;4185;41.506;24.938;2022-07-01T13:10:41;4.47;;;4.07;;
8293;SDS011;4185;41.506;24.938;2022-07-01T13:13:10;4.20;;;3.80;;
8293;SDS011;4185;41.506;24.938;2022-07-01T13:15:37;4.05;;;3.65;;
8293;SDS011;4185;41.506;24.938;2022-07-01T13:18:04;7.07;;;4.43;;
8293;SDS011;4185;41.506;24.938;2022-07-01T13:20:31;4.10;;;3.58;;
8293;SDS011;4185;41.506;24.938;2022-07-01T13:22:59;4.60;;;4.20;;
8293;SDS011;4185;41.506;24.938;2022-07-01T13:25:26;6.57;;;4.30;;
8293;SDS011;4185;41.506;24.938;2022-07-01T13:27:54;5.65;;;3.70;;
8293;SDS011;4185;41.506;24.938;2022-07-01T13:30:21;4.07;;;3.72;;
8293;SDS011;4185;41.506;24.938;2022-07-01T13:32:48;4.20;;;3.80;;
8293;SDS011;4185;41.506;24.938;2022-07-01T13:35:18;6.32;;;4.00;;
8293;SDS011;4185;41.506;24.938;2022-07-01T13:37:46;4.53;;;3.90;;
8293;SDS011;4185;41.506;24.938;2022-07-01T13:40:12;8.27;;;4.57;;
8293;SDS011;4185;41.506;24.938;2022-07-01T13:42:40;4.38;;;3.97;;
8293;SDS011;4185;41.506;24.938;2022-07-01T13:45:10;4.53;;;3.92;;
8293;SDS011;4185;41.506;24.938;2022-07-01T13:47:38;5.85;;;4.15;;
8293;SDS011;4185;41.506;24.938;2022-07-01T13:50:06;4.60;;;3.90;;
8293;SDS011;4185;41.506;24.938;2022-07-01T13:52:33;5.15;;;3.63;;
8293;SDS011;4185;41.506;24.938;2022-07-01T13:55:00;5.90;;;3.67;;
8293;SDS011;4185;41.506;24.938;2022-07-01T13:57:27;4.45;;;3.92;;
8293;SDS011;4185;41.506;24.938;2022-07-01T13:59:54;4.30;;;3.90;;
8293;SDS011;4185;41.506;24.938;2022-07-01T14:02:23;4.93;;;3.80;;
8293;SDS011;4185;41.506;24.938;2022-07-01T14:04:50;4.70;;;3.80;;
8293;SDS011;4185;41.506;24.938;2022-07-01T14:07:17;4.20;;;3.80;;
8293;SDS011;4185;41.506;24.938;2022-07-01T14:09:44;4.20;;;3.80;;
8293;SDS011;4185;41.506;24.938;2022-07-01T14:12:12;6.07;;;4.10;;
8293;SDS011;4185;41.506;24.938;2022-07-01T14:14:40;4.15;;;3.85;;
8293;SDS011;4185;41.506;24.938;2022-07-01T14:17:07;6.25;;;3.70;;
8293;SDS011;4185;41.506;24.938;2022-07-01T14:19:36;6.90;;;4.10;;
8293;SDS011;4185;41.506;24.938;2022-07-01T14:22:03;4.68;;;4.28;;
8293;SDS011;4185;41.506;24.938;2022-07-01T14:24:30;6.45;;;4.25;;
8293;SDS011;4185;41.506;24.938;2022-07-01T14:26:57;4.75;;;3.63;;
8293;SDS011;4185;41.506;24.938;2022-07-01T14:29:24;11.20;;;4.50;;
8293;SDS011;4185;41.506;24.938;2022-07-01T14:31:50;5.65;;;4.00;;
8293;SDS011;4185;41.506;24.938;2022-07-01T14:34:17;9.88;;;4.07;;
8293;SDS011;4185;41.506;24.938;2022-07-01T14:36:45;4.43;;;4.05;;
8293;SDS011;4185;41.506;24.938;2022-07-01T14:39:12;5.38;;;3.85;;
8293;SDS011;4185;41.506;24.938;2022-07-01T14:41:39;8.25;;;4.10;;
8293;SDS011;4185;41.506;24.938;2022-07-01T14:44:06;7.30;;;4.00;;
8293;SDS011;4185;41.506;24.938;2022-07-01T14:46:33;5.20;;;4.22;;
8293;SDS011;4185;41.506;24.938;2022-07-01T14:49:00;4.55;;;4.20;;
8293;SDS011;4185;41.506;24.938;2022-07-01T14:51:27;9.13;;;4.50;;
8293;SDS011;4185;41.506;24.938;2022-07-01T14:53:55;4.40;;;3.90;;
8293;SDS011;4185;41.506;24.938;2022-07-01T14:56:22;4.10;;;3.70;;
8293;SDS011;4185;41.506;24.938;2022-07-01T14:58:49;4.38;;;3.97;;
8293;SDS011;4185;41.506;24.938;2022-07-01T15:01:15;4.72;;;4.32;;
8293;SDS011;4185;41.506;24.938;2022-07-01T15:03:42;4.60;;;4.15;;
8293;SDS011;4185;41.506;24.938;2022-07-01T15:06:09;7.38;;;4.40;;
8293;SDS011;4185;41.506;24.938;2022-07-01T15:08:36;5.47;;;3.95;;
8293;SDS011;4185;41.506;24.938;2022-07-01T15:11:06;4.00;;;3.60;;
8293;SDS011;4185;41.506;24.938;2022-07-01T15:13:33;6.70;;;3.53;;